createdAt,value
2022-08-11T00:01:57.094Z,99645.40
2022-08-11T00:04:42.170Z,99646.00
2022-08-11T00:07:18.917Z,99645.60
2022-08-11T00:09:56.978Z,99646.20
2022-08-11T00:12:33.625Z,99646.00
2022-08-11T00:15:13.021Z,99642.20
2022-08-11T00:17:50.196Z,99640.00
2022-08-11T00:20:33.410Z,99643.40
2022-08-11T00:23:14.649Z,99644.60
2022-08-11T00:25:56.630Z,99645.40
2022-08-11T00:28:38.064Z,99642.20
2022-08-11T00:31:25.962Z,99641.80
2022-08-11T00:34:04.346Z,99644.80
2022-08-11T00:36:51.597Z,99644.80
2022-08-11T00:39:32.772Z,99647.80
2022-08-11T00:42:33.251Z,99643.80
2022-08-11T00:45:24.061Z,99646.40
2022-08-11T00:48:13.215Z,99648.60
2022-08-11T00:51:20.293Z,99647.20
2022-08-11T00:54:21.398Z,99647.80
2022-08-11T00:57:52.516Z,99648.20
2022-08-11T01:00:45.065Z,99644.60
2022-08-11T01:03:51.457Z,99642.40
2022-08-11T01:07:10.328Z,99638.00
2022-08-11T01:10:15.356Z,99635.40
2022-08-11T01:13:15.694Z,99634.60
2022-08-11T01:17:08.293Z,99635.60
2022-08-11T01:20:47.406Z,99646.00
2022-08-11T01:24:30.984Z,99644.80
2022-08-11T01:28:15.984Z,99643.40
2022-08-11T01:31:48.407Z,99637.80
2022-08-11T01:35:37.549Z,99644.40
2022-08-11T01:39:26.250Z,99640.40
2022-08-11T01:43:05.033Z,99637.00
2022-08-11T01:45:53.916Z,99639.80
2022-08-11T01:48:44.166Z,99640.20
2022-08-11T01:51:44.713Z,99636.20
2022-08-11T01:54:33.916Z,99633.60
2022-08-11T01:57:33.256Z,99635.80
2022-08-11T02:00:18.573Z,99635.60
2022-08-11T02:03:07.374Z,99632.60
2022-08-11T02:06:27.432Z,99627.20
2022-08-11T02:09:17.351Z,99625.40
2022-08-11T02:12:04.843Z,99624.00
2022-08-11T02:15:05.062Z,99621.80
2022-08-11T02:18:11.429Z,99621.80
2022-08-11T02:21:14.739Z,99620.60
2022-08-11T02:24:06.535Z,99624.40
2022-08-11T02:26:53.906Z,99622.00
2022-08-11T02:29:39.669Z,99622.80
2022-08-11T02:32:48.257Z,99630.80
2022-08-11T02:35:42.962Z,99624.40
2022-08-11T02:38:31.095Z,99629.20
2022-08-11T02:41:40.906Z,99627.60
2022-08-11T02:44:38.921Z,99626.40
2022-08-11T02:47:39.110Z,99629.80
2022-08-11T02:50:31.234Z,99631.00
2022-08-11T02:53:17.620Z,99635.60
2022-08-11T02:56:10.017Z,99626.00
2022-08-11T02:59:11.886Z,99627.40
2022-08-11T03:02:04.913Z,99633.20
2022-08-11T03:05:01.678Z,99634.60
2022-08-11T03:08:02.766Z,99633.60
2022-08-11T03:11:08.648Z,99632.20
2022-08-11T03:14:18.430Z,99634.00
2022-08-11T03:17:06.944Z,99628.00
2022-08-11T03:20:04.174Z,99629.00
2022-08-11T03:22:55.991Z,99632.00
2022-08-11T03:25:46.472Z,99630.40
2022-08-11T03:28:35.368Z,99634.00
2022-08-11T03:31:30.889Z,99634.40
2022-08-11T03:34:15.125Z,99632.80
2022-08-11T03:37:45.524Z,99632.00
2022-08-11T03:41:03.131Z,99635.00
2022-08-11T03:43:59.687Z,99634.00
2022-08-11T03:47:09.909Z,99632.00
2022-08-11T03:50:12.175Z,99632.40
2022-08-11T03:53:15.192Z,99628.20
2022-08-11T03:56:38.632Z,99627.80
2022-08-11T04:00:32.639Z,99626.80
2022-08-11T04:04:22.277Z,99623.20
2022-08-11T04:07:53.933Z,99619.80
2022-08-11T04:11:19.019Z,99624.80
2022-08-11T04:15:08.544Z,99625.60
2022-08-11T04:18:30.107Z,99624.40
2022-08-11T04:21:28.097Z,99624.40
2022-08-11T04:24:56.488Z,99629.60
2022-08-11T04:28:42.929Z,99629.60
2022-08-11T04:31:51.482Z,99636.40
2022-08-11T04:35:12.320Z,99641.00
2022-08-11T04:39:05.667Z,99641.60
2022-08-11T04:43:19.412Z,99646.80
2022-08-11T04:46:42.197Z,99652.20
2022-08-11T04:50:21.199Z,99654.80
2022-08-11T04:54:09.638Z,99659.60
2022-08-11T04:57:09.484Z,99661.80
2022-08-11T05:00:27.277Z,99665.60
2022-08-11T05:04:28.004Z,99663.60
2022-08-11T05:08:36.763Z,99664.80
2022-08-11T05:12:02.466Z,99664.80
2022-08-11T05:15:04.975Z,99666.60
2022-08-11T05:18:14.962Z,99666.40
2022-08-11T05:21:21.350Z,99673.60
2022-08-11T05:24:26.501Z,99678.20
2022-08-11T05:27:26.782Z,99687.00
2022-08-11T05:30:28.780Z,99691.80
2022-08-11T05:33:38.891Z,99688.80
2022-08-11T05:36:30.293Z,99691.40
2022-08-11T05:39:36.889Z,99697.00
2022-08-11T05:42:33.586Z,99690.80
2022-08-11T05:45:57.254Z,99688.60
2022-08-11T05:48:58.588Z,99702.00
2022-08-11T05:52:05.465Z,99700.20
2022-08-11T05:55:07.516Z,99699.20
2022-08-11T05:57:50.987Z,99700.40
2022-08-11T06:00:29.152Z,99699.60
2022-08-11T06:03:11.158Z,99701.00
2022-08-11T06:05:48.828Z,99704.20
2022-08-11T06:08:37.644Z,99707.60
2022-08-11T06:11:14.346Z,99713.60
2022-08-11T06:13:52.952Z,99713.00
2022-08-11T06:16:32.066Z,99716.60
2022-08-11T06:19:09.656Z,99714.60
2022-08-11T06:21:53.324Z,99716.60
2022-08-11T06:24:32.102Z,99711.80
2022-08-11T06:27:13.853Z,99713.00
2022-08-11T06:29:56.513Z,99712.80
2022-08-11T06:32:37.160Z,99712.80
2022-08-11T06:35:24.632Z,99715.80
2022-08-11T06:38:16.379Z,99713.00
2022-08-11T06:41:21.771Z,99713.40
2022-08-11T06:44:17.618Z,99717.80
2022-08-11T06:47:01.160Z,99708.00
2022-08-11T06:50:04.751Z,99712.60
2022-08-11T06:52:43.378Z,99711.00
2022-08-11T06:55:57.257Z,99714.40
2022-08-11T06:58:58.107Z,99714.40
2022-08-11T07:01:49.352Z,99712.60
2022-08-11T07:04:37.739Z,99710.80
2022-08-11T07:08:38.806Z,99712.20
2022-08-11T07:12:09.350Z,99714.80
2022-08-11T07:15:09.368Z,99709.40
2022-08-11T07:18:10.849Z,99709.20
2022-08-11T07:21:06.506Z,99708.80
2022-08-11T07:24:34.336Z,99708.60
2022-08-11T07:27:47.698Z,99713.20
2022-08-11T07:30:25.749Z,99707.00
2022-08-11T07:33:05.622Z,99702.00
2022-08-11T07:35:51.949Z,99700.00
2022-08-11T07:38:47.249Z,99704.80
2022-08-11T07:41:32.869Z,99708.60
2022-08-11T07:44:11.752Z,99700.80
2022-08-11T07:47:09.706Z,99697.80
2022-08-11T07:50:10.833Z,99698.60
2022-08-11T07:52:52.771Z,99700.60
2022-08-11T07:55:51.212Z,99697.40
2022-08-11T07:58:53.167Z,99690.60
2022-08-11T08:01:49.156Z,99700.40
2022-08-11T08:04:46.784Z,99700.60
2022-08-11T08:07:42.772Z,99697.80
2022-08-11T08:10:38.155Z,99699.00
2022-08-11T08:13:32.075Z,99700.00
2022-08-11T08:16:26.836Z,99697.40
2022-08-11T08:19:03.093Z,99693.20
2022-08-11T08:21:39.835Z,99690.60
2022-08-11T08:24:17.181Z,99690.60
2022-08-11T08:26:59.604Z,99686.00
2022-08-11T08:29:57.567Z,99683.80
2022-08-11T08:32:35.810Z,99686.40
2022-08-11T08:35:16.309Z,99683.20
2022-08-11T08:37:54.650Z,99680.40
2022-08-11T08:40:31.756Z,99678.20
2022-08-11T08:43:17.413Z,99670.20
2022-08-11T08:45:58.702Z,99670.80
2022-08-11T08:48:36.293Z,99671.20
2022-08-11T08:52:01.235Z,99665.40
2022-08-11T08:54:39.319Z,99662.60
2022-08-11T08:57:17.407Z,99663.40
2022-08-11T08:59:55.391Z,99659.20
2022-08-11T09:02:34.618Z,99657.20
2022-08-11T09:05:13.966Z,99654.80
2022-08-11T09:07:51.738Z,99647.00
2022-08-11T09:10:31.438Z,99652.00
2022-08-11T09:13:10.321Z,99656.00
2022-08-11T09:15:50.232Z,99645.60
2022-08-11T09:18:33.160Z,99653.80
2022-08-11T09:21:12.109Z,99646.00
2022-08-11T09:24:13.039Z,99643.40
2022-08-11T09:27:04.122Z,99643.20
2022-08-11T09:29:44.096Z,99635.80
2022-08-11T09:32:24.552Z,99635.20
2022-08-11T09:35:02.698Z,99633.80
2022-08-11T09:37:58.152Z,99625.40
2022-08-11T09:40:37.812Z,99619.60
2022-08-11T09:43:35.684Z,99622.40
2022-08-11T09:46:14.223Z,99627.60
2022-08-11T09:48:53.812Z,99622.20
2022-08-11T09:51:33.849Z,99617.20
2022-08-11T09:54:11.845Z,99610.20
2022-08-11T09:57:06.215Z,99613.80
2022-08-11T09:59:43.007Z,99604.40
2022-08-11T10:02:24.828Z,99603.40
2022-08-11T10:05:17.711Z,99601.80
2022-08-11T10:07:56.227Z,99605.00
2022-08-11T10:10:37.515Z,99595.00
2022-08-11T10:14:31.122Z,99594.80
2022-08-11T10:16:16.890Z,99596.40
2022-08-11T10:18:56.433Z,99592.40
2022-08-11T10:21:41.888Z,99582.40
2022-08-11T10:24:35.631Z,99575.60
2022-08-11T10:27:12.515Z,99574.20
2022-08-11T10:30:08.313Z,99570.80
2022-08-11T10:33:08.843Z,99572.00
2022-08-11T10:35:50.336Z,99569.00
2022-08-11T10:38:27.921Z,99571.40
2022-08-11T10:41:23.309Z,99567.00
2022-08-11T10:44:02.556Z,99561.60
2022-08-11T10:46:58.965Z,99567.00
2022-08-11T10:49:35.534Z,99558.40
2022-08-11T10:52:30.521Z,99551.40
2022-08-11T10:55:25.615Z,99555.20
2022-08-11T10:58:22.493Z,99556.00
2022-08-11T11:01:01.106Z,99556.60
2022-08-11T11:03:39.262Z,99551.40
2022-08-11T11:06:29.880Z,99548.80
2022-08-11T11:09:14.555Z,99543.80
2022-08-11T11:12:15.208Z,99536.40
2022-08-11T11:15:17.286Z,99529.80
2022-08-11T11:18:04.833Z,99524.20
2022-08-11T11:20:48.441Z,99517.80
2022-08-11T11:23:42.854Z,99521.80
2022-08-11T11:26:56.067Z,99517.20
2022-08-11T11:30:04.995Z,99516.40
2022-08-11T11:33:01.977Z,99511.00
2022-08-11T11:36:09.039Z,99514.60
2022-08-11T11:38:45.592Z,99509.60
2022-08-11T11:41:27.812Z,99501.00
2022-08-11T11:44:04.629Z,99495.00
2022-08-11T11:46:41.471Z,99503.80
2022-08-11T11:52:03.042Z,99497.00
2022-08-11T11:54:41.009Z,99497.40
2022-08-11T11:57:38.330Z,99493.80
2022-08-11T12:00:35.671Z,99490.60
2022-08-11T12:03:16.133Z,99490.40
2022-08-11T12:05:53.544Z,99487.80
2022-08-11T12:08:30.472Z,99489.80
2022-08-11T12:11:29.050Z,99487.80
2022-08-11T12:14:24.146Z,99485.40
2022-08-11T12:17:02.063Z,99480.00
2022-08-11T12:19:38.180Z,99479.20
2022-08-11T12:22:35.438Z,99479.00
2022-08-11T12:25:30.635Z,99474.20
2022-08-11T12:28:07.415Z,99479.60
2022-08-11T12:30:49.596Z,99482.60
2022-08-11T12:33:30.337Z,99489.80
2022-08-11T12:36:09.574Z,99524.60
2022-08-11T12:38:51.705Z,99534.40
2022-08-11T12:41:46.185Z,99535.60
2022-08-11T12:44:44.733Z,99532.60
2022-08-11T12:47:23.904Z,99572.40
2022-08-11T12:50:22.757Z,99575.20
2022-08-11T12:53:00.103Z,99561.00
2022-08-11T12:56:03.618Z,99562.60
2022-08-11T12:58:47.835Z,99567.60
2022-08-11T13:01:43.488Z,99571.60
2022-08-11T13:04:37.706Z,99570.20
2022-08-11T13:07:17.307Z,99569.60
2022-08-11T13:09:54.773Z,99566.40
2022-08-11T13:12:52.069Z,99560.60
2022-08-11T13:15:29.974Z,99563.40
2022-08-11T13:18:08.711Z,99555.20
2022-08-11T13:20:48.466Z,99553.60
2022-08-11T13:23:25.576Z,99554.40
2022-08-11T13:26:02.766Z,99554.80
2022-08-11T13:28:40.297Z,99545.60
2022-08-11T13:31:17.217Z,99543.80
2022-08-11T13:33:54.911Z,99542.20
2022-08-11T13:36:32.522Z,99542.00
2022-08-11T13:39:09.603Z,99555.00
2022-08-11T13:41:48.612Z,99559.80
2022-08-11T13:44:27.621Z,99567.80
2022-08-11T13:47:09.434Z,99560.20
2022-08-11T13:49:45.871Z,99554.80
2022-08-11T13:52:23.189Z,99545.20
2022-08-11T13:55:00.739Z,99544.60
2022-08-11T13:58:06.710Z,99536.40
2022-08-11T14:00:36.930Z,99524.60
2022-08-11T14:03:16.103Z,99529.80
2022-08-11T14:05:56.745Z,99526.00
2022-08-11T14:08:41.800Z,99524.40
2022-08-11T14:12:21.297Z,99526.40
2022-08-11T14:14:39.909Z,99531.20
2022-08-11T14:17:46.949Z,99522.40
2022-08-11T14:20:39.872Z,99523.20
2022-08-11T14:23:20.558Z,99524.80
2022-08-11T14:26:14.425Z,99527.20
2022-08-11T14:28:53.294Z,99528.40
2022-08-11T14:31:33.156Z,99525.20
2022-08-11T14:34:14.694Z,99520.20
2022-08-11T14:36:55.936Z,99521.40
2022-08-11T14:39:46.006Z,99513.00
2022-08-11T14:42:42.531Z,99513.60
2022-08-11T14:45:58.269Z,99509.20
2022-08-11T14:48:34.255Z,99499.00
2022-08-11T14:51:11.297Z,99495.20
2022-08-11T14:53:58.344Z,99482.60
2022-08-11T14:56:38.075Z,99485.00
2022-08-11T14:59:15.140Z,99484.80
2022-08-11T15:02:10.248Z,99485.20
2022-08-11T15:04:46.626Z,99486.40
2022-08-11T15:07:30.000Z,99492.60
2022-08-11T15:10:13.287Z,99488.80
2022-08-11T15:12:51.896Z,99486.20
2022-08-11T15:15:48.445Z,99482.60
2022-08-11T15:18:27.282Z,99484.80
2022-08-11T15:21:20.904Z,99488.40
2022-08-11T15:24:27.276Z,99488.80
2022-08-11T15:27:31.529Z,99489.60
2022-08-11T15:30:33.253Z,99484.80
2022-08-11T15:33:37.213Z,99475.60
2022-08-11T15:36:34.776Z,99480.60
2022-08-11T15:39:21.115Z,99483.80
2022-08-11T15:42:34.152Z,99477.00
2022-08-11T15:45:32.730Z,99484.40
2022-08-11T15:48:16.011Z,99484.20
2022-08-11T15:50:59.808Z,99480.20
2022-08-11T15:53:56.455Z,99486.40
2022-08-11T15:56:40.647Z,99486.40
2022-08-11T15:59:41.781Z,99483.00
2022-08-11T16:02:42.074Z,99481.80
2022-08-11T16:05:45.239Z,99484.80
2022-08-11T16:08:23.523Z,99479.20
2022-08-11T16:11:10.281Z,99478.00
2022-08-11T16:14:06.336Z,99482.40
2022-08-11T16:16:44.130Z,99493.80
2022-08-11T16:19:21.890Z,99495.40
2022-08-11T16:22:00.574Z,99488.20
2022-08-11T16:27:03.404Z,99480.00
2022-08-11T16:27:48.875Z,99481.80
2022-08-11T16:30:25.893Z,99477.00
2022-08-11T16:33:49.058Z,99478.00
2022-08-11T16:36:20.817Z,99480.00
2022-08-11T16:38:58.985Z,99480.20
2022-08-11T16:41:55.283Z,99470.40
2022-08-11T16:44:55.506Z,99474.20
2022-08-11T16:48:01.829Z,99469.40
2022-08-11T16:50:30.310Z,99469.20
2022-08-11T16:53:07.082Z,99470.80
2022-08-11T16:55:52.594Z,99475.60
2022-08-11T16:58:53.504Z,99480.40
2022-08-11T17:01:30.867Z,99472.80
2022-08-11T17:04:43.550Z,99462.00
2022-08-11T17:07:43.392Z,99455.40
2022-08-11T17:10:51.268Z,99456.00
2022-08-11T17:13:48.133Z,99459.80
2022-08-11T17:16:33.540Z,99471.00
2022-08-11T17:19:15.498Z,99470.00
2022-08-11T17:22:11.962Z,99469.80
2022-08-11T17:24:52.553Z,99469.60
2022-08-11T17:27:31.253Z,99472.00
2022-08-11T17:30:11.867Z,99466.60
2022-08-11T17:33:09.967Z,99470.60
2022-08-11T17:35:47.282Z,99471.00
2022-08-11T17:38:26.421Z,99468.80
2022-08-11T17:41:23.936Z,99470.80
2022-08-11T17:44:19.050Z,99481.80
2022-08-11T17:47:13.918Z,99483.80
2022-08-11T17:49:52.725Z,99488.20
2022-08-11T17:52:47.829Z,99490.60
2022-08-11T17:55:52.312Z,99484.80
2022-08-11T17:59:00.306Z,99482.80
2022-08-11T18:01:38.497Z,99483.40
2022-08-11T18:04:19.074Z,99481.00
2022-08-11T18:06:58.651Z,99475.00
2022-08-11T18:09:52.439Z,99474.00
2022-08-11T18:12:46.757Z,99474.00
2022-08-11T18:15:50.089Z,99483.00
2022-08-11T18:18:50.462Z,99483.20
2022-08-11T18:22:11.027Z,99484.80
2022-08-11T18:25:10.692Z,99484.20
2022-08-11T18:28:11.608Z,99486.40
2022-08-11T18:31:13.042Z,99479.80
2022-08-11T18:34:13.107Z,99480.40
2022-08-11T18:37:21.999Z,99483.60
2022-08-11T18:40:26.348Z,99477.20
2022-08-11T18:43:27.311Z,99480.20
2022-08-11T18:46:31.855Z,99484.80
2022-08-11T18:50:02.472Z,99479.20
2022-08-11T18:52:49.490Z,99495.20
2022-08-11T18:55:44.026Z,99504.60
2022-08-11T18:58:47.051Z,99496.00
2022-08-11T19:01:45.994Z,99503.00
2022-08-11T19:04:42.818Z,99499.20
2022-08-11T19:07:38.616Z,99504.40
2022-08-11T19:10:33.665Z,99502.00
2022-08-11T19:13:30.060Z,99507.20
2022-08-11T19:16:26.325Z,99508.20
2022-08-11T19:19:21.453Z,99502.40
2022-08-11T19:22:17.328Z,99509.40
2022-08-11T19:25:14.354Z,99501.40
2022-08-11T19:28:09.135Z,99497.60
2022-08-11T19:31:04.630Z,99495.40
2022-08-11T19:34:09.679Z,99487.60
2022-08-11T19:37:06.546Z,99487.00
2022-08-11T19:40:03.321Z,99487.20
2022-08-11T19:43:00.121Z,99478.60
2022-08-11T19:45:55.425Z,99478.60
2022-08-11T19:48:51.233Z,99482.00
2022-08-11T19:51:47.031Z,99480.80
2022-08-11T19:54:54.724Z,99478.60
2022-08-11T19:57:50.633Z,99482.00
2022-08-11T20:00:45.346Z,99478.00
2022-08-11T20:03:39.151Z,99469.40
2022-08-11T20:06:35.797Z,99467.40
2022-08-11T20:10:06.108Z,99467.00
2022-08-11T20:12:49.643Z,99470.60
2022-08-11T20:15:44.879Z,99476.40
2022-08-11T20:18:39.943Z,99475.00
2022-08-11T20:21:34.863Z,99474.80
2022-08-11T20:24:31.839Z,99468.20
2022-08-11T20:27:27.456Z,99470.20
2022-08-11T20:30:23.427Z,99472.60
2022-08-11T20:33:17.220Z,99470.60
2022-08-11T20:36:12.740Z,99470.80
2022-08-11T20:39:08.162Z,99469.60
2022-08-11T20:42:05.303Z,99470.00
2022-08-11T20:45:00.293Z,99469.20
2022-08-11T20:48:00.620Z,99478.20
2022-08-11T20:50:57.079Z,99477.40
2022-08-11T20:53:52.811Z,99473.60
2022-08-11T20:56:49.179Z,99473.20
2022-08-11T20:59:49.510Z,99477.20
2022-08-11T21:02:52.760Z,99473.80
2022-08-11T21:06:09.665Z,99477.80
2022-08-11T21:09:02.896Z,99476.00
2022-08-11T21:11:58.846Z,99473.40
2022-08-11T21:14:55.670Z,99477.60
2022-08-11T21:18:06.263Z,99479.00
2022-08-11T21:21:06.887Z,99484.20
2022-08-11T21:24:03.126Z,99487.80
2022-08-11T21:27:03.649Z,99486.80
2022-08-11T21:30:00.414Z,99486.60
2022-08-11T21:32:55.732Z,99486.00
2022-08-11T21:35:52.399Z,99484.00
2022-08-11T21:38:52.376Z,99480.00
2022-08-11T21:41:48.959Z,99482.60
2022-08-11T21:44:44.116Z,99487.20
2022-08-11T21:47:44.324Z,99484.40
2022-08-11T21:50:38.479Z,99483.60
2022-08-11T21:53:33.296Z,99493.80
2022-08-11T21:56:29.242Z,99503.80
2022-08-11T21:59:24.391Z,99498.00
2022-08-11T22:02:19.822Z,99493.20
2022-08-11T22:05:15.099Z,99495.60
2022-08-11T22:08:09.070Z,99498.00
2022-08-11T22:11:02.818Z,99505.40
2022-08-11T22:14:01.251Z,99510.00
2022-08-11T22:17:01.951Z,99510.00
2022-08-11T22:20:00.841Z,99506.80
2022-08-11T22:22:55.733Z,99502.40
2022-08-11T22:25:55.002Z,99502.00
2022-08-11T22:28:54.417Z,99498.60
2022-08-11T22:31:49.261Z,99501.40
2022-08-11T22:34:52.585Z,99493.80
2022-08-11T22:37:52.122Z,99494.40
2022-08-11T22:40:46.118Z,99486.00
2022-08-11T22:43:39.967Z,99479.40
2022-08-11T22:46:35.443Z,99483.80
2022-08-11T22:49:57.067Z,99484.40
2022-08-11T22:52:47.175Z,99485.60
2022-08-11T22:55:42.706Z,99483.20
2022-08-11T22:58:38.606Z,99480.60
2022-08-11T23:01:35.423Z,99472.60
2022-08-11T23:04:30.539Z,99472.60
2022-08-11T23:07:49.828Z,99471.80
2022-08-11T23:10:40.727Z,99473.40
2022-08-11T23:13:35.957Z,99471.20
2022-08-11T23:16:30.580Z,99468.80
2022-08-11T23:20:10.298Z,99463.00
2022-08-11T23:22:49.977Z,99459.20
2022-08-11T23:25:45.873Z,99458.60
2022-08-11T23:28:42.232Z,99458.80
2022-08-11T23:31:50.847Z,99452.80
2022-08-11T23:35:37.217Z,99450.00
2022-08-11T23:38:09.147Z,99449.20
2022-08-11T23:41:03.935Z,99441.80
2022-08-11T23:43:58.051Z,99439.40
2022-08-11T23:46:52.793Z,99435.60
2022-08-11T23:49:47.943Z,99432.40
2022-08-11T23:52:43.937Z,99433.00
2022-08-11T23:55:38.552Z,99432.40
2022-08-11T23:58:33.107Z,99428.40
